Ibadan, Nigeria
Current Conditions -  °F | °C
As of 8:00 AM on Sunday 26 Oct 2014 (Local Time) from DBBB Reporting Station
Few Clouds Few Clouds  
Wind Chill: 75°   Ceiling: Unl
Heat Index: 75°   Visibility: 5mi
Dew Point: 75°   Wind: 1mph
Humidity: 100%   Direction: NA
Pressure: 29.88"   Gusts: NA
Location:  7.38°N, 3.93°E
Report Text: DBBB 260700Z VRB01KT 8000 FEW012 24/24 Q1012 NOSIG
Loading
Personal Weather Stations






























Interactive Weather Map
Tropical Storm Tracking
New forecast layout! Learn more

10-Day Weather Forecast

Advertisements
Track Severe Weather on mobile